De Kooy, Netherlands

11:07 AM CEST on August 30, 2016 (GMT +0200)
Meteo - Aan Zee (Den Helder) | | Change Station

Elev 10 ft 52.93 °N, 4.77 °E | Updated 37 seconds ago

Partly Cloudy
Partly Cloudy
66.9 °F
Feels Like 66.9 °F
N
13.0
Wind Variable Wind from SW
Gusts 14.0 mph

Today
High -- | Low -- °F
--% Chance of Precip.
Yesterday
High -- | Low -- °F
Precip. -- in
Pressure 30.27 in
Visibility 6.2 miles
Clouds Few 1800 ft
Dew Point 61 °F
Humidity 80%
Rainfall 0.00 in
Snow Depth Not available.
6:48 AM 8:33 PM
Waning Crescent, 4% visible
SPECI EHVL 300859Z AUTO 24013KT 9999 FEW018 20/16 Q1025 BLU
Pressure 30.27 in
Visibility 6.2 miles
Clouds Few 1800 ft
Dew Point 61 °F
Humidity 80%
Rainfall 0.00 in
Snow Depth Not available.
6:48 AM 8:33 PM
Waning Crescent, 4% visible
SPECI EHVL 300859Z AUTO 24013KT 9999 FEW018 20/16 Q1025 BLU

10-Day Weather Forecast

×

Almanac

Astronomy

Aug. 30, 2016 Rise Set
Actual Time
Civil Twilight
Nautical Twilight
Astronomical Twilight
Moon
Length of Visible Light
Length of Day
Tomorrow will be .
, % of the Moon is Illuminated

Today's Extremes

Country Highs Country Lows

Community

WunderPhotos

Upload Photos

1,935,795 photos uploaded!

WunderBlog® & News

Nearby

Air Quality

  Air Quality AQ Index Pollutant
Not available.

Snow Depth

Station Depth Elevation

Earthquake Activity

City Distance Mag. Time & Date
Minimum magnitude displayed is 2.5.

Coastal Water Temperatures

Place Temperature

Stations

Nearby Weather Stations

Station Location Temp. Windchill Dew Point Humidity Wind Precip. Elev Updated Type